Terminal Aerodrome Forecast
Issued by NWS

Home | Current Version | Previous Version | Text Only | Print | Product List | Glossary On
Versions: 1 2 3 4 5 6 7 8 9 10 11 12 13 14 15 16 17 18 19 20 21 22 23 24
000
FTUS41 KOKX 290232 AAA
TAFHPN
TAF AMD
KHPN 290232Z 2903/2924 12006KT P6SM SCT015 BKN050
     FM290600 09005KT P6SM -RA OVC015
     FM290900 08010G16KT 5SM -RA OVC007
     FM291200 09012G18KT 1SM RA OVC005 PROB30 2912/2916 -TSRA SCT005
      BKN012CB
     FM291600 07010KT 2SM -DZ BR OVC004
     FM292200 06006KT 4SM BR OVC010
      AMD NOT SKED=

USA.gov is the U.S. government's official web portal to all federal, state and local government web resources and services.